Santa Isabel, Argentina
Current Conditions -  °F | °C
As of 5:00 PM on Saturday 25 Oct 2014 (Local Time) from SAAR Reporting Station
Clear Clear  
Wind Chill: 86°   Ceiling: Unl
Heat Index: 87°   Visibility: 6mi
Dew Point: 64°   Wind: 10mph
Humidity: 48%   Direction: 50°NE
Pressure: 29.8"   Gusts: NA
Location:  33.9°S, 61.7°W
Report Text: SAAR 252000Z 05009KT CAVOK 30/18 Q1009
Loading
Personal Weather Stations






























Interactive Weather Map
Tropical Storm Tracking
New forecast layout! Learn more

10-Day Weather Forecast

Advertisements
Track Severe Weather on mobile